Wailuku, Hawaii
Current Conditions -  °F | °C
As of 2:54 AM on Thursday 18 Dec 2014 (Local Time) from PHOG Reporting Station
Clear Clear  
Wind Chill: 72°   Ceiling: Unl
Heat Index: 72°   Visibility: 10mi
Dew Point: 66°   Wind: 13mph
Humidity: 81%   Direction: 50°NE
Pressure: 30.13"   Gusts: 22mph
Location:  20.89°N, 156.5°W
Report Text: PHOG 181254Z AUTO 05011G19KT 10SM CLR 22/19 A3013 RMK AO2 SLP207 T02220189 TSNO $
Loading
Personal Weather Stations






























Interactive Weather Map New forecast layout! Learn more

10-Day Weather Forecast

Advertisements
Track Severe Weather on mobile